West Lafayette, IN

4:19 AM EDT on November 01, 2014 (GMT -0400)
Pine View Farms | Change Station
CLOSE
Current Station
Personal Weather Station
Location: West Lafayette, IN
Elevation: 696 ft
Nearby Weather Stations
Active Advisory: Freeze Warning Active Notice: Local Storm Report

Elev 696 ft 40.47 °N, 86.95 °W | Updated 13 seconds ago

Overcast
Overcast
33.5 °F
Feels Like 30 °F
N
3.6
Wind Variable Wind from NW
Gusts 6.9 mph

Today
High -- | Low -- °F
--% Chance of Precip.
Yesterday
High -- | Low -- °F
Precip. -- in
8:17 AM 6:44 PM
Waxing Gibbous, 64% visible
Pressure 30.30 in
Visibility 10.0 miles
Clouds Scattered Clouds 3600 ft
Windchill 30 °F
Dew Point 25 °F
Humidity 70%
Rainfall 0.00 in
Snow Depth Not available.
UV 0 out of 12
Pollen .10 out of 12
Air Quality Not available.
Flu Activity Not available.
METAR KLAF 010754Z AUTO 36008KT 10SM SCT036 M01/M05 A3028 RMK AO2 SLP259 T10061050 TSNO

More Conditions Fewer Conditions

Pressure 30.30 in
Visibility 10.0 miles
Clouds Scattered Clouds 3600 ft
Windchill 30 °F
Dew Point 25 °F
Humidity 70%
Rainfall 0.00 in
Snow Depth Not available.
UV 0 out of 12
Pollen .10 out of 12
Air Quality Not available.
Flu Activity Not available.
METAR KLAF 010754Z AUTO 36008KT 10SM SCT036 M01/M05 A3028 RMK AO2 SLP259 T10061050 TSNO

More Conditions Fewer Conditions

10-Day Weather Forecast

Almanac

Astronomy

Nov. 01, 2014 Rise Set
Actual Time
Civil Twilight
Nautical Twilight
Astronomical Twilight
Moon
Length of Visible Light
Length of Day
Tomorrow will be .
, % of the Moon is Illuminated

Today's Extremes

State Highs State Lows

Community

WunderPhotos

Upload Photos

1,766,866 photos uploaded!

WunderBlogs® & News

Nearby

Air Quality

  Air Quality AQ Index Pollutant
Not available.

Snow Depth

Station Depth Elevation

Earthquake Activity

City Distance Mag. Time & Date
Minimum magnitude displayed is 2.5.

Coastal Water Temperatures

Place Temperature

Nearby Weather Stations